map of LTX home
LTX - Airport
Location
City:  Latacunga, Cotopaxi, Ecuador
Name:Cotopaxi International Airport
ICAO:SELT
IATA:LTX

Details
Type:Airport (Aerodrome, Airfield)
Use:Public/Civil, Military, International (customs port of entry)
Latitude:054'25"S (-0.906832)
Longitude:7836'57"W (-78.615755)
Datum:WGS 1984
Elevation:9205 ft (2806 m)
Variation:3.41W (WMM2015 magnetic declination)
-0.16 annual change
Runways:1
Longest:12117 × 148 ft (3693 × 45 m), paved

Time
Time Zone:UTC-5
Local Time:

Weather
METAR:SELT 210100Z 29002KT 9999 SCT100 SCT300 13/11 Q1029
TAF:SELT 201640Z 2018/2118 22012KT 9999 SCT033 SCT100 BKN300
FM210200 VRB03KT 9999 BKN030 BKN300
FM211400 18008KT 9999 SCT030 BKN300 TX20/2019Z TN10/2111Z

Related Locations
Nearby:
Farthest:PKU: 12446 mi / 20031 km
Pekanbaru [Sultan Syarif Kasim II Intl (Simpang Tiga Airport)], RI, ID

Find:

   beyond  
but within

Other Information
Maps:
NOTAMs:
Links:
Sources:

  
  • flag of Ecuador
  • flag of Cotopaxi
  

Sectional Chart

Flight Planning
at skyvector.com

Satellite Image

Google Maps Satellite view

 

Copyright © 2004-2018 Karl L. Swartz. All rights reserved.
The Great Circle Mapper name and logo are trademarks of the Great Circle Mapper.
All other trademarks mentioned herein belong to their respective owners.
Please see credits for attibutions and further copyright information.

  Follow gcmap on Facebook Follow gcmap on Twitter Follow gcmap on Google+ GCmap on LinkedIn

hCard Microformat

Geo Microformat